sensor_id;sensor_type;location;lat;lon;timestamp;temperature;humidity
9808;DHT22;4943;52.550;13.462;2023-11-21T00:00:05;10.40;99.90
9808;DHT22;4943;52.550;13.462;2023-11-21T00:02:39;10.40;99.90
9808;DHT22;4943;52.550;13.462;2023-11-21T00:05:08;10.40;99.90
9808;DHT22;4943;52.550;13.462;2023-11-21T00:07:38;10.40;99.90
9808;DHT22;4943;52.550;13.462;2023-11-21T00:10:07;10.40;99.90
9808;DHT22;4943;52.550;13.462;2023-11-21T00:12:37;10.50;99.90
9808;DHT22;4943;52.550;13.462;2023-11-21T00:15:09;10.40;99.90
9808;DHT22;4943;52.550;13.462;2023-11-21T00:17:39;10.30;99.90
9808;DHT22;4943;52.550;13.462;2023-11-21T00:20:08;10.30;99.90
9808;DHT22;4943;52.550;13.462;2023-11-21T00:22:41;10.30;99.90
9808;DHT22;4943;52.550;13.462;2023-11-21T00:25:10;10.20;99.90
9808;DHT22;4943;52.550;13.462;2023-11-21T00:27:38;10.20;99.90
9808;DHT22;4943;52.550;13.462;2023-11-21T00:30:07;10.20;99.90
9808;DHT22;4943;52.550;13.462;2023-11-21T00:32:35;10.20;99.90
9808;DHT22;4943;52.550;13.462;2023-11-21T00:35:05;10.10;99.90
9808;DHT22;4943;52.550;13.462;2023-11-21T00:37:33;10.10;99.90
9808;DHT22;4943;52.550;13.462;2023-11-21T00:40:03;10.00;99.90
9808;DHT22;4943;52.550;13.462;2023-11-21T00:42:33;10.00;99.90
9808;DHT22;4943;52.550;13.462;2023-11-21T00:45:01;9.90;99.90
9808;DHT22;4943;52.550;13.462;2023-11-21T00:47:30;9.90;99.90
9808;DHT22;4943;52.550;13.462;2023-11-21T00:49:59;9.90;99.90
9808;DHT22;4943;52.550;13.462;2023-11-21T00:52:27;9.90;99.90
9808;DHT22;4943;52.550;13.462;2023-11-21T00:54:55;9.90;99.90
9808;DHT22;4943;52.550;13.462;2023-11-21T00:57:28;9.90;99.90
9808;DHT22;4943;52.550;13.462;2023-11-21T00:59:56;9.80;99.90
9808;DHT22;4943;52.550;13.462;2023-11-21T01:02:24;9.70;99.90
9808;DHT22;4943;52.550;13.462;2023-11-21T01:04:53;9.70;99.90
9808;DHT22;4943;52.550;13.462;2023-11-21T01:07:21;9.70;99.90
9808;DHT22;4943;52.550;13.462;2023-11-21T01:09:49;9.60;99.90
9808;DHT22;4943;52.550;13.462;2023-11-21T01:12:17;9.70;99.90
9808;DHT22;4943;52.550;13.462;2023-11-21T01:14:47;9.70;99.90
9808;DHT22;4943;52.550;13.462;2023-11-21T01:17:15;9.70;99.90
9808;DHT22;4943;52.550;13.462;2023-11-21T01:19:43;9.60;99.90
9808;DHT22;4943;52.550;13.462;2023-11-21T01:22:11;9.50;99.90
9808;DHT22;4943;52.550;13.462;2023-11-21T01:24:40;9.50;99.90
9808;DHT22;4943;52.550;13.462;2023-11-21T01:27:08;9.50;99.90
9808;DHT22;4943;52.550;13.462;2023-11-21T01:29:36;9.40;99.90
9808;DHT22;4943;52.550;13.462;2023-11-21T01:32:06;9.50;99.90
9808;DHT22;4943;52.550;13.462;2023-11-21T01:34:35;9.50;99.90
9808;DHT22;4943;52.550;13.462;2023-11-21T01:37:03;9.40;99.90
9808;DHT22;4943;52.550;13.462;2023-11-21T01:39:32;9.40;99.90
9808;DHT22;4943;52.550;13.462;2023-11-21T01:42:00;9.40;99.90
9808;DHT22;4943;52.550;13.462;2023-11-21T01:44:28;9.40;99.90
9808;DHT22;4943;52.550;13.462;2023-11-21T01:46:56;9.50;99.90
9808;DHT22;4943;52.550;13.462;2023-11-21T01:49:26;9.50;99.90
9808;DHT22;4943;52.550;13.462;2023-11-21T01:51:55;9.40;99.90
9808;DHT22;4943;52.550;13.462;2023-11-21T01:54:23;9.40;99.90
9808;DHT22;4943;52.550;13.462;2023-11-21T01:56:51;9.40;99.90
9808;DHT22;4943;52.550;13.462;2023-11-21T01:59:21;9.30;99.90
9808;DHT22;4943;52.550;13.462;2023-11-21T02:01:49;9.20;99.90
9808;DHT22;4943;52.550;13.462;2023-11-21T02:04:18;9.20;99.90
9808;DHT22;4943;52.550;13.462;2023-11-21T02:06:49;9.20;99.90
9808;DHT22;4943;52.550;13.462;2023-11-21T02:09:25;9.30;99.90
9808;DHT22;4943;52.550;13.462;2023-11-21T02:11:54;9.30;99.90
9808;DHT22;4943;52.550;13.462;2023-11-21T02:14:25;9.40;99.90
9808;DHT22;4943;52.550;13.462;2023-11-21T02:16:55;9.50;99.90
9808;DHT22;4943;52.550;13.462;2023-11-21T02:19:24;9.40;99.90
9808;DHT22;4943;52.550;13.462;2023-11-21T02:21:56;9.40;99.90
9808;DHT22;4943;52.550;13.462;2023-11-21T02:24:27;9.40;99.90
9808;DHT22;4943;52.550;13.462;2023-11-21T02:26:55;9.40;99.90
9808;DHT22;4943;52.550;13.462;2023-11-21T02:29:24;9.50;99.90
9808;DHT22;4943;52.550;13.462;2023-11-21T02:31:55;9.40;99.90
9808;DHT22;4943;52.550;13.462;2023-11-21T02:34:23;9.40;99.90
9808;DHT22;4943;52.550;13.462;2023-11-21T02:36:52;9.30;99.90
9808;DHT22;4943;52.550;13.462;2023-11-21T02:39:21;9.30;99.90
9808;DHT22;4943;52.550;13.462;2023-11-21T02:41:51;9.30;99.90
9808;DHT22;4943;52.550;13.462;2023-11-21T02:44:20;9.30;99.90
9808;DHT22;4943;52.550;13.462;2023-11-21T02:46:48;9.30;99.90
9808;DHT22;4943;52.550;13.462;2023-11-21T02:49:16;9.30;99.90
9808;DHT22;4943;52.550;13.462;2023-11-21T02:51:44;9.20;99.90
9808;DHT22;4943;52.550;13.462;2023-11-21T02:54:12;9.10;99.90
9808;DHT22;4943;52.550;13.462;2023-11-21T02:56:43;9.10;99.90
9808;DHT22;4943;52.550;13.462;2023-11-21T02:59:12;9.00;99.90
9808;DHT22;4943;52.550;13.462;2023-11-21T03:01:41;9.00;99.90
9808;DHT22;4943;52.550;13.462;2023-11-21T03:04:09;8.90;99.90
9808;DHT22;4943;52.550;13.462;2023-11-21T03:06:37;8.90;99.90
9808;DHT22;4943;52.550;13.462;2023-11-21T03:09:05;8.80;99.90
9808;DHT22;4943;52.550;13.462;2023-11-21T03:11:33;8.80;99.90
9808;DHT22;4943;52.550;13.462;2023-11-21T03:14:01;8.80;99.90
9808;DHT22;4943;52.550;13.462;2023-11-21T03:16:32;8.80;99.90
9808;DHT22;4943;52.550;13.462;2023-11-21T03:19:00;8.80;99.90
9808;DHT22;4943;52.550;13.462;2023-11-21T03:21:28;8.90;99.90
9808;DHT22;4943;52.550;13.462;2023-11-21T03:23:57;8.90;99.90
9808;DHT22;4943;52.550;13.462;2023-11-21T03:26:26;8.90;99.90
9808;DHT22;4943;52.550;13.462;2023-11-21T03:28:54;8.90;99.90
9808;DHT22;4943;52.550;13.462;2023-11-21T03:31:22;8.90;99.90
9808;DHT22;4943;52.550;13.462;2023-11-21T03:33:52;8.90;99.90
9808;DHT22;4943;52.550;13.462;2023-11-21T03:36:20;8.90;99.90
9808;DHT22;4943;52.550;13.462;2023-11-21T03:38:48;8.90;99.90
9808;DHT22;4943;52.550;13.462;2023-11-21T03:41:16;8.80;99.90
9808;DHT22;4943;52.550;13.462;2023-11-21T03:43:45;8.80;99.90
9808;DHT22;4943;52.550;13.462;2023-11-21T03:46:13;8.70;99.90
9808;DHT22;4943;52.550;13.462;2023-11-21T03:48:41;8.70;99.90
9808;DHT22;4943;52.550;13.462;2023-11-21T03:51:11;8.70;99.90
9808;DHT22;4943;52.550;13.462;2023-11-21T03:53:39;8.70;99.90
9808;DHT22;4943;52.550;13.462;2023-11-21T03:56:08;8.70;99.90
9808;DHT22;4943;52.550;13.462;2023-11-21T03:58:36;8.70;99.90
9808;DHT22;4943;52.550;13.462;2023-11-21T04:01:05;8.70;99.90
9808;DHT22;4943;52.550;13.462;2023-11-21T04:03:33;8.70;99.90
9808;DHT22;4943;52.550;13.462;2023-11-21T04:06:01;8.60;99.90
9808;DHT22;4943;52.550;13.462;2023-11-21T04:08:31;8.60;99.90
9808;DHT22;4943;52.550;13.462;2023-11-21T04:11:00;8.50;99.90
9808;DHT22;4943;52.550;13.462;2023-11-21T04:13:28;8.50;99.90
9808;DHT22;4943;52.550;13.462;2023-11-21T04:15:57;8.40;99.90
9808;DHT22;4943;52.550;13.462;2023-11-21T04:18:25;8.40;99.90
9808;DHT22;4943;52.550;13.462;2023-11-21T04:20:53;8.40;99.90
9808;DHT22;4943;52.550;13.462;2023-11-21T04:23:21;8.40;99.90
9808;DHT22;4943;52.550;13.462;2023-11-21T04:25:51;8.40;99.90
9808;DHT22;4943;52.550;13.462;2023-11-21T04:28:21;8.40;99.90
9808;DHT22;4943;52.550;13.462;2023-11-21T04:30:49;8.40;99.90
9808;DHT22;4943;52.550;13.462;2023-11-21T04:33:17;8.50;99.90
9808;DHT22;4943;52.550;13.462;2023-11-21T04:35:45;8.50;99.90
9808;DHT22;4943;52.550;13.462;2023-11-21T04:38:14;8.50;99.90
9808;DHT22;4943;52.550;13.462;2023-11-21T04:40:42;8.50;99.90
9808;DHT22;4943;52.550;13.462;2023-11-21T04:43:11;8.50;99.90
9808;DHT22;4943;52.550;13.462;2023-11-21T04:45:39;8.50;99.90
9808;DHT22;4943;52.550;13.462;2023-11-21T04:48:08;8.40;99.90
9808;DHT22;4943;52.550;13.462;2023-11-21T04:50:36;8.40;99.90
9808;DHT22;4943;52.550;13.462;2023-11-21T04:53:05;8.40;99.90
9808;DHT22;4943;52.550;13.462;2023-11-21T04:55:33;8.40;99.90
9808;DHT22;4943;52.550;13.462;2023-11-21T04:58:01;8.50;99.90
9808;DHT22;4943;52.550;13.462;2023-11-21T05:00:32;8.40;99.90
9808;DHT22;4943;52.550;13.462;2023-11-21T05:03:00;8.30;99.90
9808;DHT22;4943;52.550;13.462;2023-11-21T05:05:29;8.40;99.90
9808;DHT22;4943;52.550;13.462;2023-11-21T05:07:57;8.40;99.90
9808;DHT22;4943;52.550;13.462;2023-11-21T05:10:25;8.50;99.90
9808;DHT22;4943;52.550;13.462;2023-11-21T05:12:53;8.50;99.90
9808;DHT22;4943;52.550;13.462;2023-11-21T05:15:22;8.50;99.90
9808;DHT22;4943;52.550;13.462;2023-11-21T05:17:51;8.40;99.90
9808;DHT22;4943;52.550;13.462;2023-11-21T05:20:20;8.40;99.90
9808;DHT22;4943;52.550;13.462;2023-11-21T05:22:48;8.50;99.90
9808;DHT22;4943;52.550;13.462;2023-11-21T05:25:17;8.40;99.90
9808;DHT22;4943;52.550;13.462;2023-11-21T05:27:46;8.50;99.90
9808;DHT22;4943;52.550;13.462;2023-11-21T05:30:14;8.40;99.90
9808;DHT22;4943;52.550;13.462;2023-11-21T05:32:42;8.40;99.90
9808;DHT22;4943;52.550;13.462;2023-11-21T05:35:12;8.40;99.90
9808;DHT22;4943;52.550;13.462;2023-11-21T05:37:43;8.40;99.90
9808;DHT22;4943;52.550;13.462;2023-11-21T05:40:12;8.40;99.90
9808;DHT22;4943;52.550;13.462;2023-11-21T05:42:41;8.40;99.90
9808;DHT22;4943;52.550;13.462;2023-11-21T05:45:10;8.40;99.90
9808;DHT22;4943;52.550;13.462;2023-11-21T05:47:40;8.40;99.90
9808;DHT22;4943;52.550;13.462;2023-11-21T05:50:10;8.40;99.90
9808;DHT22;4943;52.550;13.462;2023-11-21T05:52:41;8.40;99.90
9808;DHT22;4943;52.550;13.462;2023-11-21T05:55:11;8.40;99.90
9808;DHT22;4943;52.550;13.462;2023-11-21T05:57:42;8.30;99.90
9808;DHT22;4943;52.550;13.462;2023-11-21T06:00:12;8.30;99.90
9808;DHT22;4943;52.550;13.462;2023-11-21T06:02:45;8.40;99.90
9808;DHT22;4943;52.550;13.462;2023-11-21T06:05:13;8.40;99.90
9808;DHT22;4943;52.550;13.462;2023-11-21T06:07:43;8.40;99.90
9808;DHT22;4943;52.550;13.462;2023-11-21T06:10:11;8.30;99.90
9808;DHT22;4943;52.550;13.462;2023-11-21T06:12:41;8.30;99.90
9808;DHT22;4943;52.550;13.462;2023-11-21T06:15:11;8.30;99.90
9808;DHT22;4943;52.550;13.462;2023-11-21T06:17:41;8.20;99.90
9808;DHT22;4943;52.550;13.462;2023-11-21T06:20:12;8.20;99.90
9808;DHT22;4943;52.550;13.462;2023-11-21T06:22:43;8.20;99.90
9808;DHT22;4943;52.550;13.462;2023-11-21T06:25:12;8.10;99.90
9808;DHT22;4943;52.550;13.462;2023-11-21T06:27:42;8.10;99.90
9808;DHT22;4943;52.550;13.462;2023-11-21T06:30:12;8.10;99.90
9808;DHT22;4943;52.550;13.462;2023-11-21T06:32:41;8.00;99.90
9808;DHT22;4943;52.550;13.462;2023-11-21T06:35:12;8.00;99.90
9808;DHT22;4943;52.550;13.462;2023-11-21T06:37:44;7.90;99.90
9808;DHT22;4943;52.550;13.462;2023-11-21T06:40:15;8.00;99.90
9808;DHT22;4943;52.550;13.462;2023-11-21T06:42:45;8.00;99.90
9808;DHT22;4943;52.550;13.462;2023-11-21T06:45:15;8.00;99.90
9808;DHT22;4943;52.550;13.462;2023-11-21T06:47:43;8.10;99.90
9808;DHT22;4943;52.550;13.462;2023-11-21T06:50:12;8.10;99.90
9808;DHT22;4943;52.550;13.462;2023-11-21T06:52:41;8.00;99.90
9808;DHT22;4943;52.550;13.462;2023-11-21T06:55:11;8.00;99.90
9808;DHT22;4943;52.550;13.462;2023-11-21T06:57:40;8.00;99.90
9808;DHT22;4943;52.550;13.462;2023-11-21T07:00:09;8.00;99.90
9808;DHT22;4943;52.550;13.462;2023-11-21T07:02:38;8.00;99.90
9808;DHT22;4943;52.550;13.462;2023-11-21T07:05:07;8.00;99.90
9808;DHT22;4943;52.550;13.462;2023-11-21T07:07:35;8.00;99.90
9808;DHT22;4943;52.550;13.462;2023-11-21T07:10:05;8.00;99.90
9808;DHT22;4943;52.550;13.462;2023-11-21T07:12:34;8.00;99.90
9808;DHT22;4943;52.550;13.462;2023-11-21T07:15:03;8.00;99.90
9808;DHT22;4943;52.550;13.462;2023-11-21T07:17:36;8.00;99.90
9808;DHT22;4943;52.550;13.462;2023-11-21T07:20:08;8.00;99.90
9808;DHT22;4943;52.550;13.462;2023-11-21T07:22:36;7.90;99.90
9808;DHT22;4943;52.550;13.462;2023-11-21T07:25:05;7.90;99.90
9808;DHT22;4943;52.550;13.462;2023-11-21T07:27:35;7.90;99.90
9808;DHT22;4943;52.550;13.462;2023-11-21T07:30:05;7.80;99.90
9808;DHT22;4943;52.550;13.462;2023-11-21T07:32:35;7.90;99.90
9808;DHT22;4943;52.550;13.462;2023-11-21T07:35:08;7.90;99.90
9808;DHT22;4943;52.550;13.462;2023-11-21T07:37:37;7.90;99.90
9808;DHT22;4943;52.550;13.462;2023-11-21T07:40:06;7.90;99.90
9808;DHT22;4943;52.550;13.462;2023-11-21T07:42:38;7.90;99.90
9808;DHT22;4943;52.550;13.462;2023-11-21T07:45:07;7.90;99.90
9808;DHT22;4943;52.550;13.462;2023-11-21T07:47:36;8.00;99.90
9808;DHT22;4943;52.550;13.462;2023-11-21T07:50:07;8.00;99.90
9808;DHT22;4943;52.550;13.462;2023-11-21T07:52:35;7.90;99.90
9808;DHT22;4943;52.550;13.462;2023-11-21T07:55:04;7.90;99.90
9808;DHT22;4943;52.550;13.462;2023-11-21T07:57:34;7.80;99.90
9808;DHT22;4943;52.550;13.462;2023-11-21T08:00:05;7.90;99.90
9808;DHT22;4943;52.550;13.462;2023-11-21T08:02:36;7.90;99.90
9808;DHT22;4943;52.550;13.462;2023-11-21T08:05:04;7.90;99.90
9808;DHT22;4943;52.550;13.462;2023-11-21T08:07:37;7.80;99.90
9808;DHT22;4943;52.550;13.462;2023-11-21T08:10:06;7.80;99.90
9808;DHT22;4943;52.550;13.462;2023-11-21T08:12:37;7.70;99.90
9808;DHT22;4943;52.550;13.462;2023-11-21T08:15:07;7.70;99.90
9808;DHT22;4943;52.550;13.462;2023-11-21T08:17:36;7.70;99.90
9808;DHT22;4943;52.550;13.462;2023-11-21T08:20:05;7.70;99.90
9808;DHT22;4943;52.550;13.462;2023-11-21T08:22:35;7.80;99.90
9808;DHT22;4943;52.550;13.462;2023-11-21T08:25:04;7.80;99.90
9808;DHT22;4943;52.550;13.462;2023-11-21T08:27:32;7.80;99.90
9808;DHT22;4943;52.550;13.462;2023-11-21T08:30:01;7.80;99.90
9808;DHT22;4943;52.550;13.462;2023-11-21T08:32:31;7.90;99.90
9808;DHT22;4943;52.550;13.462;2023-11-21T08:35:00;8.00;99.90
9808;DHT22;4943;52.550;13.462;2023-11-21T08:37:29;8.00;99.90
9808;DHT22;4943;52.550;13.462;2023-11-21T08:39:59;8.10;99.90
9808;DHT22;4943;52.550;13.462;2023-11-21T08:42:28;8.10;99.90
9808;DHT22;4943;52.550;13.462;2023-11-21T08:44:57;8.10;99.90
9808;DHT22;4943;52.550;13.462;2023-11-21T08:47:25;8.10;99.90
9808;DHT22;4943;52.550;13.462;2023-11-21T08:49:55;8.10;99.90
9808;DHT22;4943;52.550;13.462;2023-11-21T08:52:25;8.00;99.90
9808;DHT22;4943;52.550;13.462;2023-11-21T08:54:53;7.80;99.90
9808;DHT22;4943;52.550;13.462;2023-11-21T08:57:23;7.90;99.90
9808;DHT22;4943;52.550;13.462;2023-11-21T08:59:51;7.80;99.90
9808;DHT22;4943;52.550;13.462;2023-11-21T09:02:22;7.90;99.90
9808;DHT22;4943;52.550;13.462;2023-11-21T09:04:51;7.80;99.90
9808;DHT22;4943;52.550;13.462;2023-11-21T09:07:20;7.80;99.90
9808;DHT22;4943;52.550;13.462;2023-11-21T09:09:49;7.80;99.90
9808;DHT22;4943;52.550;13.462;2023-11-21T09:12:17;7.80;99.90
9808;DHT22;4943;52.550;13.462;2023-11-21T09:14:46;7.80;99.90
9808;DHT22;4943;52.550;13.462;2023-11-21T09:17:14;7.70;99.90
9808;DHT22;4943;52.550;13.462;2023-11-21T09:19:43;7.60;99.90
9808;DHT22;4943;52.550;13.462;2023-11-21T09:22:12;7.60;99.90
9808;DHT22;4943;52.550;13.462;2023-11-21T09:24:41;7.50;99.90
9808;DHT22;4943;52.550;13.462;2023-11-21T09:27:09;7.50;99.90
9808;DHT22;4943;52.550;13.462;2023-11-21T09:29:38;7.60;99.90
9808;DHT22;4943;52.550;13.462;2023-11-21T09:32:06;7.60;99.90
9808;DHT22;4943;52.550;13.462;2023-11-21T09:34:35;7.70;99.90
9808;DHT22;4943;52.550;13.462;2023-11-21T09:37:05;7.70;99.90
9808;DHT22;4943;52.550;13.462;2023-11-21T09:39:34;7.80;99.90
9808;DHT22;4943;52.550;13.462;2023-11-21T09:42:10;7.90;99.90
9808;DHT22;4943;52.550;13.462;2023-11-21T09:44:45;7.90;99.90
9808;DHT22;4943;52.550;13.462;2023-11-21T09:47:15;7.90;99.90
9808;DHT22;4943;52.550;13.462;2023-11-21T09:49:47;7.90;99.90
9808;DHT22;4943;52.550;13.462;2023-11-21T09:52:21;7.90;99.90
9808;DHT22;4943;52.550;13.462;2023-11-21T09:54:53;7.90;99.90
9808;DHT22;4943;52.550;13.462;2023-11-21T09:57:23;8.10;99.90
9808;DHT22;4943;52.550;13.462;2023-11-21T09:59:53;8.10;99.90
9808;DHT22;4943;52.550;13.462;2023-11-21T10:02:25;8.20;99.90
9808;DHT22;4943;52.550;13.462;2023-11-21T10:04:55;8.20;99.90
9808;DHT22;4943;52.550;13.462;2023-11-21T10:07:23;8.20;99.90
9808;DHT22;4943;52.550;13.462;2023-11-21T10:09:53;8.10;99.90
9808;DHT22;4943;52.550;13.462;2023-11-21T10:12:23;8.00;99.90
9808;DHT22;4943;52.550;13.462;2023-11-21T10:14:54;8.00;99.90
9808;DHT22;4943;52.550;13.462;2023-11-21T10:17:28;7.80;99.90
9808;DHT22;4943;52.550;13.462;2023-11-21T10:20:04;7.80;99.90
9808;DHT22;4943;52.550;13.462;2023-11-21T10:22:39;7.70;99.90
9808;DHT22;4943;52.550;13.462;2023-11-21T10:25:09;7.70;99.90
9808;DHT22;4943;52.550;13.462;2023-11-21T10:27:38;7.70;99.90
9808;DHT22;4943;52.550;13.462;2023-11-21T10:30:07;7.70;99.90
9808;DHT22;4943;52.550;13.462;2023-11-21T10:32:38;7.60;99.90
9808;DHT22;4943;52.550;13.462;2023-11-21T10:35:08;7.60;99.90
9808;DHT22;4943;52.550;13.462;2023-11-21T10:37:39;7.50;99.90
9808;DHT22;4943;52.550;13.462;2023-11-21T10:40:09;7.50;99.90
9808;DHT22;4943;52.550;13.462;2023-11-21T10:42:40;7.50;99.90
9808;DHT22;4943;52.550;13.462;2023-11-21T10:45:09;7.50;99.90
9808;DHT22;4943;52.550;13.462;2023-11-21T10:47:41;7.40;99.90
9808;DHT22;4943;52.550;13.462;2023-11-21T10:50:09;7.50;99.90
9808;DHT22;4943;52.550;13.462;2023-11-21T10:52:40;7.50;99.90
9808;DHT22;4943;52.550;13.462;2023-11-21T10:55:17;7.40;99.90
9808;DHT22;4943;52.550;13.462;2023-11-21T10:57:48;7.40;99.90
9808;DHT22;4943;52.550;13.462;2023-11-21T11:00:18;7.40;99.90
9808;DHT22;4943;52.550;13.462;2023-11-21T11:02:50;7.40;99.90
9808;DHT22;4943;52.550;13.462;2023-11-21T11:05:20;7.50;99.90
9808;DHT22;4943;52.550;13.462;2023-11-21T11:07:50;7.50;99.90
9808;DHT22;4943;52.550;13.462;2023-11-21T11:10:21;7.50;99.90
9808;DHT22;4943;52.550;13.462;2023-11-21T11:12:55;7.60;99.90
9808;DHT22;4943;52.550;13.462;2023-11-21T11:15:26;7.70;99.90
9808;DHT22;4943;52.550;13.462;2023-11-21T11:17:54;7.70;99.90
9808;DHT22;4943;52.550;13.462;2023-11-21T11:20:29;7.70;99.90
9808;DHT22;4943;52.550;13.462;2023-11-21T11:26:06;7.70;99.90
9808;DHT22;4943;52.550;13.462;2023-11-21T11:28:44;7.60;99.90
9808;DHT22;4943;52.550;13.462;2023-11-21T11:31:25;7.60;99.90
9808;DHT22;4943;52.550;13.462;2023-11-21T11:33:58;7.50;99.90
9808;DHT22;4943;52.550;13.462;2023-11-21T11:36:31;7.60;99.90
9808;DHT22;4943;52.550;13.462;2023-11-21T11:39:03;7.60;99.90
9808;DHT22;4943;52.550;13.462;2023-11-21T11:41:32;7.60;99.90
9808;DHT22;4943;52.550;13.462;2023-11-21T11:44:03;7.70;99.90
9808;DHT22;4943;52.550;13.462;2023-11-21T11:46:42;7.70;99.90
9808;DHT22;4943;52.550;13.462;2023-11-21T11:49:23;7.70;99.90
9808;DHT22;4943;52.550;13.462;2023-11-21T11:54:53;7.50;99.90
9808;DHT22;4943;52.550;13.462;2023-11-21T11:57:24;7.50;99.90
9808;DHT22;4943;52.550;13.462;2023-11-21T12:00:14;7.50;99.90
9808;DHT22;4943;52.550;13.462;2023-11-21T12:02:48;7.50;99.90
9808;DHT22;4943;52.550;13.462;2023-11-21T12:05:17;7.50;99.90
9808;DHT22;4943;52.550;13.462;2023-11-21T12:07:48;7.40;99.90
9808;DHT22;4943;52.550;13.462;2023-11-21T12:10:17;7.40;99.90
9808;DHT22;4943;52.550;13.462;2023-11-21T12:12:47;7.30;99.90
9808;DHT22;4943;52.550;13.462;2023-11-21T12:15:17;7.30;99.90
9808;DHT22;4943;52.550;13.462;2023-11-21T12:17:46;7.30;99.90
9808;DHT22;4943;52.550;13.462;2023-11-21T12:20:15;7.30;99.90
9808;DHT22;4943;52.550;13.462;2023-11-21T12:22:47;7.30;99.90
9808;DHT22;4943;52.550;13.462;2023-11-21T12:25:17;7.20;99.90
9808;DHT22;4943;52.550;13.462;2023-11-21T12:27:47;7.20;99.90
9808;DHT22;4943;52.550;13.462;2023-11-21T12:30:18;7.30;99.90
9808;DHT22;4943;52.550;13.462;2023-11-21T12:32:49;7.30;99.90
9808;DHT22;4943;52.550;13.462;2023-11-21T12:35:20;7.30;99.90
9808;DHT22;4943;52.550;13.462;2023-11-21T12:37:48;7.30;99.90
9808;DHT22;4943;52.550;13.462;2023-11-21T12:40:17;7.40;99.90
9808;DHT22;4943;52.550;13.462;2023-11-21T12:42:47;7.40;99.90
9808;DHT22;4943;52.550;13.462;2023-11-21T12:45:21;7.40;99.90
9808;DHT22;4943;52.550;13.462;2023-11-21T12:47:54;7.30;99.90
9808;DHT22;4943;52.550;13.462;2023-11-21T12:50:25;7.30;99.90
9808;DHT22;4943;52.550;13.462;2023-11-21T12:52:59;7.30;99.90
9808;DHT22;4943;52.550;13.462;2023-11-21T12:55:30;7.20;99.90
9808;DHT22;4943;52.550;13.462;2023-11-21T12:58:01;7.30;99.90
9808;DHT22;4943;52.550;13.462;2023-11-21T13:00:38;7.40;99.90
9808;DHT22;4943;52.550;13.462;2023-11-21T13:03:07;7.30;99.90
9808;DHT22;4943;52.550;13.462;2023-11-21T13:05:38;7.20;99.90
9808;DHT22;4943;52.550;13.462;2023-11-21T13:08:09;7.20;99.90
9808;DHT22;4943;52.550;13.462;2023-11-21T13:10:40;7.20;99.90
9808;DHT22;4943;52.550;13.462;2023-11-21T13:13:11;7.20;99.90
9808;DHT22;4943;52.550;13.462;2023-11-21T13:15:50;7.20;99.90
9808;DHT22;4943;52.550;13.462;2023-11-21T13:18:19;7.20;99.90
9808;DHT22;4943;52.550;13.462;2023-11-21T13:20:48;7.30;99.90
9808;DHT22;4943;52.550;13.462;2023-11-21T13:23:17;7.20;99.90
9808;DHT22;4943;52.550;13.462;2023-11-21T13:25:45;7.20;99.90
9808;DHT22;4943;52.550;13.462;2023-11-21T13:28:24;7.10;99.90
9808;DHT22;4943;52.550;13.462;2023-11-21T13:31:00;7.00;99.90
9808;DHT22;4943;52.550;13.462;2023-11-21T13:33:36;7.00;99.90
9808;DHT22;4943;52.550;13.462;2023-11-21T13:36:06;6.90;99.90
9808;DHT22;4943;52.550;13.462;2023-11-21T13:38:37;6.80;99.90
9808;DHT22;4943;52.550;13.462;2023-11-21T13:41:10;6.80;99.90
9808;DHT22;4943;52.550;13.462;2023-11-21T13:43:40;6.80;99.90
9808;DHT22;4943;52.550;13.462;2023-11-21T13:46:12;6.70;99.90
9808;DHT22;4943;52.550;13.462;2023-11-21T13:48:44;6.60;99.90
9808;DHT22;4943;52.550;13.462;2023-11-21T13:51:18;6.60;99.90
9808;DHT22;4943;52.550;13.462;2023-11-21T13:53:48;6.70;99.90
9808;DHT22;4943;52.550;13.462;2023-11-21T13:56:17;6.70;99.90
9808;DHT22;4943;52.550;13.462;2023-11-21T13:58:49;6.70;99.90
9808;DHT22;4943;52.550;13.462;2023-11-21T14:01:21;6.70;99.90
9808;DHT22;4943;52.550;13.462;2023-11-21T14:04:06;6.70;99.90
9808;DHT22;4943;52.550;13.462;2023-11-21T14:06:46;6.60;99.90
9808;DHT22;4943;52.550;13.462;2023-11-21T14:09:17;6.60;99.90
9808;DHT22;4943;52.550;13.462;2023-11-21T14:11:50;6.60;99.90
9808;DHT22;4943;52.550;13.462;2023-11-21T14:14:20;6.60;99.90
9808;DHT22;4943;52.550;13.462;2023-11-21T14:16:50;6.50;99.90
9808;DHT22;4943;52.550;13.462;2023-11-21T14:19:18;6.40;99.90
9808;DHT22;4943;52.550;13.462;2023-11-21T14:21:48;6.40;99.90
9808;DHT22;4943;52.550;13.462;2023-11-21T14:24:16;6.40;99.90
9808;DHT22;4943;52.550;13.462;2023-11-21T14:26:45;6.30;99.90
9808;DHT22;4943;52.550;13.462;2023-11-21T14:29:15;6.30;99.90
9808;DHT22;4943;52.550;13.462;2023-11-21T14:31:47;6.30;99.90
9808;DHT22;4943;52.550;13.462;2023-11-21T14:34:18;6.30;99.90
9808;DHT22;4943;52.550;13.462;2023-11-21T14:36:49;6.30;99.90
9808;DHT22;4943;52.550;13.462;2023-11-21T14:39:17;6.30;99.90
9808;DHT22;4943;52.550;13.462;2023-11-21T14:41:50;6.20;99.90
9808;DHT22;4943;52.550;13.462;2023-11-21T14:44:20;6.10;99.90
9808;DHT22;4943;52.550;13.462;2023-11-21T14:46:53;6.00;99.90
9808;DHT22;4943;52.550;13.462;2023-11-21T14:49:26;6.00;99.90
9808;DHT22;4943;52.550;13.462;2023-11-21T14:52:03;5.90;99.90
9808;DHT22;4943;52.550;13.462;2023-11-21T14:54:31;5.90;99.90
9808;DHT22;4943;52.550;13.462;2023-11-21T14:57:13;5.80;99.90
9808;DHT22;4943;52.550;13.462;2023-11-21T14:59:46;5.80;99.90
9808;DHT22;4943;52.550;13.462;2023-11-21T15:02:15;5.80;99.90
9808;DHT22;4943;52.550;13.462;2023-11-21T15:04:45;5.80;99.90
9808;DHT22;4943;52.550;13.462;2023-11-21T15:07:13;5.80;99.90
9808;DHT22;4943;52.550;13.462;2023-11-21T15:09:40;5.80;99.90
9808;DHT22;4943;52.550;13.462;2023-11-21T15:12:10;5.80;99.90
9808;DHT22;4943;52.550;13.462;2023-11-21T15:14:43;5.80;99.90
9808;DHT22;4943;52.550;13.462;2023-11-21T15:17:12;5.80;99.90
9808;DHT22;4943;52.550;13.462;2023-11-21T15:19:47;5.70;99.90
9808;DHT22;4943;52.550;13.462;2023-11-21T15:22:15;5.70;99.90
9808;DHT22;4943;52.550;13.462;2023-11-21T15:24:44;5.70;99.90
9808;DHT22;4943;52.550;13.462;2023-11-21T15:27:14;5.70;99.90
9808;DHT22;4943;52.550;13.462;2023-11-21T15:29:42;5.60;99.90
9808;DHT22;4943;52.550;13.462;2023-11-21T15:32:11;5.60;99.90
9808;DHT22;4943;52.550;13.462;2023-11-21T15:34:39;5.70;99.90
9808;DHT22;4943;52.550;13.462;2023-11-21T15:37:09;5.70;99.90
9808;DHT22;4943;52.550;13.462;2023-11-21T15:39:39;5.70;99.90
9808;DHT22;4943;52.550;13.462;2023-11-21T15:42:07;5.70;99.90
9808;DHT22;4943;52.550;13.462;2023-11-21T15:44:36;5.70;99.90
9808;DHT22;4943;52.550;13.462;2023-11-21T15:47:05;5.70;99.90
9808;DHT22;4943;52.550;13.462;2023-11-21T15:49:36;5.70;99.90
9808;DHT22;4943;52.550;13.462;2023-11-21T15:52:05;5.80;99.90
9808;DHT22;4943;52.550;13.462;2023-11-21T15:54:35;5.80;99.90
9808;DHT22;4943;52.550;13.462;2023-11-21T15:57:04;5.80;99.90
9808;DHT22;4943;52.550;13.462;2023-11-21T15:59:34;5.80;99.90
9808;DHT22;4943;52.550;13.462;2023-11-21T16:02:03;5.90;99.90
9808;DHT22;4943;52.550;13.462;2023-11-21T16:04:32;5.90;99.90
9808;DHT22;4943;52.550;13.462;2023-11-21T16:07:03;6.00;99.90
9808;DHT22;4943;52.550;13.462;2023-11-21T16:09:32;5.90;99.90
9808;DHT22;4943;52.550;13.462;2023-11-21T16:12:03;5.90;99.90
9808;DHT22;4943;52.550;13.462;2023-11-21T16:14:33;5.90;99.90
9808;DHT22;4943;52.550;13.462;2023-11-21T16:17:07;6.00;99.90
9808;DHT22;4943;52.550;13.462;2023-11-21T16:19:37;5.90;99.90
9808;DHT22;4943;52.550;13.462;2023-11-21T16:22:05;5.90;99.90
9808;DHT22;4943;52.550;13.462;2023-11-21T16:24:34;5.90;99.90